createdAt,value
2019-01-31T00:01:32.233Z,-0.82
2019-01-31T00:04:30.051Z,-0.75
2019-01-31T00:07:28.928Z,-0.84
2019-01-31T00:10:09.336Z,-0.83
2019-01-31T00:13:13.071Z,-0.80
2019-01-31T00:16:31.816Z,-0.72
2019-01-31T00:19:26.979Z,-0.90
2019-01-31T00:22:44.827Z,-0.82
2019-01-31T00:25:44.397Z,-1.00
2019-01-31T00:28:42.222Z,-0.85
2019-01-31T00:31:40.732Z,-0.86
2019-01-31T00:34:43.925Z,-0.80
2019-01-31T00:37:45.306Z,-0.83
2019-01-31T00:40:42.263Z,-0.70
2019-01-31T00:43:52.063Z,-0.85
2019-01-31T00:46:54.126Z,-0.82
2019-01-31T00:50:17.899Z,-0.89
2019-01-31T00:53:28.564Z,-0.98
2019-01-31T00:56:28.729Z,-1.04
2019-01-31T00:59:23.275Z,-1.00
2019-01-31T01:02:25.578Z,-0.99
2019-01-31T01:05:39.132Z,-1.04
2019-01-31T01:08:36.321Z,-1.03
2019-01-31T01:11:43.485Z,-1.11
2019-01-31T01:14:53.423Z,-1.05
2019-01-31T01:17:52.809Z,-1.05
2019-01-31T01:20:57.495Z,-1.02
2019-01-31T01:23:33.553Z,-1.01
2019-01-31T01:26:43.522Z,-1.02
2019-01-31T01:29:44.034Z,-1.00
2019-01-31T01:32:29.146Z,-0.95
2019-01-31T01:35:26.904Z,-0.94
2019-01-31T01:38:59.360Z,-1.01
2019-01-31T01:42:18.276Z,-0.92
2019-01-31T01:45:29.205Z,-0.90
2019-01-31T01:48:33.364Z,-0.82
2019-01-31T01:51:31.345Z,-0.91
2019-01-31T01:54:27.623Z,-0.93
2019-01-31T01:57:18.765Z,-0.82
2019-01-31T02:00:27.390Z,-0.77
2019-01-31T02:03:50.167Z,-0.83
2019-01-31T02:06:33.615Z,-0.80
2019-01-31T02:09:44.846Z,-0.80
2019-01-31T02:12:55.267Z,-0.80
2019-01-31T02:15:49.677Z,-0.79
2019-01-31T02:18:34.843Z,-0.90
2019-01-31T02:21:38.482Z,-0.96
2019-01-31T02:24:25.420Z,-0.97
2019-01-31T02:27:22.213Z,-1.08
2019-01-31T02:30:36.567Z,-1.00
2019-01-31T02:33:33.884Z,-1.05
2019-01-31T02:36:41.420Z,-1.06
2019-01-31T02:39:43.146Z,-1.08
2019-01-31T02:42:52.944Z,-1.14
2019-01-31T02:46:01.156Z,-1.15
2019-01-31T02:48:58.942Z,-1.20
2019-01-31T02:52:28.132Z,-1.20
2019-01-31T02:55:23.699Z,-1.22
2019-01-31T02:58:43.356Z,-1.19
2019-01-31T03:01:53.065Z,-1.19
2019-01-31T03:05:16.133Z,-1.23
2019-01-31T03:08:35.292Z,-1.13
2019-01-31T03:11:14.844Z,-1.17
2019-01-31T03:14:14.524Z,-1.15
2019-01-31T03:17:50.294Z,-1.04
2019-01-31T03:21:10.892Z,-1.14
2019-01-31T03:24:29.069Z,-1.24
2019-01-31T03:27:28.438Z,-1.29
2019-01-31T03:30:38.697Z,-1.29
2019-01-31T03:33:22.798Z,-1.30
2019-01-31T03:36:29.974Z,-1.26
2019-01-31T03:39:40.281Z,-1.28
2019-01-31T03:42:44.075Z,-1.26
2019-01-31T03:45:39.297Z,-1.25
2019-01-31T03:48:44.060Z,-1.16
2019-01-31T03:52:03.122Z,-1.16
2019-01-31T03:54:51.984Z,-1.23
2019-01-31T03:57:57.500Z,-1.25
2019-01-31T04:01:20.765Z,-1.29
2019-01-31T04:04:02.719Z,-1.33
2019-01-31T04:06:35.963Z,-1.36
2019-01-31T04:09:10.955Z,-1.32
2019-01-31T04:11:41.189Z,-1.35
2019-01-31T04:14:11.518Z,-1.43
2019-01-31T04:16:41.873Z,-1.48
2019-01-31T04:19:13.663Z,-1.46
2019-01-31T04:21:43.989Z,-1.42
2019-01-31T04:24:15.788Z,-1.44
2019-01-31T04:26:47.446Z,-1.50
2019-01-31T04:29:19.700Z,-1.43
2019-01-31T04:31:50.992Z,-1.45
2019-01-31T04:34:22.304Z,-1.47
2019-01-31T04:36:52.618Z,-1.45
2019-01-31T04:39:22.888Z,-1.38
2019-01-31T04:41:53.180Z,-1.44
2019-01-31T04:44:24.955Z,-1.45
2019-01-31T04:46:56.578Z,-1.48
2019-01-31T04:49:27.263Z,-1.33
2019-01-31T04:51:57.536Z,-1.44
2019-01-31T04:54:27.798Z,-1.47
2019-01-31T04:56:59.362Z,-1.46
2019-01-31T04:59:29.666Z,-1.54
2019-01-31T05:02:02.303Z,-1.55
2019-01-31T05:04:33.044Z,-1.48
2019-01-31T05:07:04.468Z,-1.50
2019-01-31T05:09:36.468Z,-1.51
2019-01-31T05:12:06.903Z,-1.52
2019-01-31T05:14:37.260Z,-1.48
2019-01-31T05:17:07.542Z,-1.51
2019-01-31T05:19:39.467Z,-1.53
2019-01-31T05:22:09.846Z,-1.49
2019-01-31T05:24:40.149Z,-1.47
2019-01-31T05:27:15.468Z,-1.55
2019-01-31T05:29:45.848Z,-1.56
2019-01-31T05:32:16.266Z,-1.55
2019-01-31T05:34:46.682Z,-1.66
2019-01-31T05:37:16.995Z,-1.53
2019-01-31T05:39:47.270Z,-1.58
2019-01-31T05:42:17.668Z,-1.58
2019-01-31T05:44:48.303Z,-1.56
2019-01-31T05:47:20.396Z,-1.51
2019-01-31T05:49:50.708Z,-1.50
2019-01-31T05:52:21.509Z,-1.50
2019-01-31T05:54:51.754Z,-1.42
2019-01-31T05:57:22.106Z,-1.48
2019-01-31T05:59:52.810Z,-1.49
2019-01-31T06:02:23.820Z,-1.54
2019-01-31T06:04:54.062Z,-1.51
2019-01-31T06:07:26.793Z,-1.47
2019-01-31T06:09:57.330Z,-1.54
2019-01-31T06:12:27.928Z,-1.61
2019-01-31T06:14:58.298Z,-1.52
2019-01-31T06:17:28.880Z,-1.56
2019-01-31T06:19:59.183Z,-1.55
2019-01-31T06:22:29.633Z,-1.53
2019-01-31T06:25:00.017Z,-1.61
2019-01-31T06:27:30.732Z,-1.60
2019-01-31T06:30:03.898Z,-1.64
2019-01-31T06:32:35.659Z,-1.66
2019-01-31T06:35:08.384Z,-1.75
2019-01-31T06:37:38.690Z,-1.53
2019-01-31T06:40:11.642Z,-1.54
2019-01-31T06:42:41.923Z,-1.47
2019-01-31T06:45:15.218Z,-1.60
2019-01-31T06:47:45.743Z,-1.61
2019-01-31T06:50:16.539Z,-1.63
2019-01-31T06:52:47.013Z,-1.62
2019-01-31T06:55:17.862Z,-1.59
2019-01-31T06:57:48.492Z,-1.62
2019-01-31T07:00:22.474Z,-1.59
2019-01-31T07:02:52.750Z,-1.67
2019-01-31T07:05:23.032Z,-1.64
2019-01-31T07:07:53.353Z,-1.66
2019-01-31T07:10:26.363Z,-1.73
2019-01-31T07:12:56.671Z,-1.67
2019-01-31T07:15:27.607Z,-1.63
2019-01-31T07:17:59.289Z,-1.60
2019-01-31T07:20:34.396Z,-1.66
2019-01-31T07:23:05.803Z,-1.63
2019-01-31T07:25:36.278Z,-1.57
2019-01-31T07:28:21.462Z,-1.56
2019-01-31T07:30:52.229Z,-1.57
2019-01-31T07:33:22.624Z,-1.47
2019-01-31T07:35:52.909Z,-1.51
2019-01-31T07:38:23.186Z,-1.55
2019-01-31T07:40:53.456Z,-1.57
2019-01-31T07:43:23.968Z,-1.48
2019-01-31T07:45:54.203Z,-1.41
2019-01-31T07:48:24.541Z,-1.48
2019-01-31T07:50:54.982Z,-1.29
2019-01-31T07:53:25.239Z,-1.37
2019-01-31T07:55:55.493Z,-1.15
2019-01-31T07:58:25.795Z,-1.24
2019-01-31T08:01:03.326Z,-1.30
2019-01-31T08:03:40.822Z,-1.24
2019-01-31T08:06:18.166Z,-1.12
2019-01-31T08:08:52.700Z,-1.23
2019-01-31T08:11:23.774Z,-1.19
2019-01-31T08:14:01.798Z,-1.14
2019-01-31T08:16:39.742Z,-1.06
2019-01-31T08:19:13.763Z,-1.14
2019-01-31T08:21:46.339Z,-0.83
2019-01-31T08:24:16.760Z,-0.80
2019-01-31T08:26:50.414Z,-0.80
2019-01-31T08:29:20.946Z,-0.70
2019-01-31T08:31:51.388Z,-0.69
2019-01-31T08:34:23.220Z,-0.54
2019-01-31T08:36:53.521Z,-0.40
2019-01-31T08:39:23.954Z,-0.17
2019-01-31T08:42:03.497Z,0.10
2019-01-31T08:44:26.348Z,0.44
2019-01-31T08:46:56.751Z,0.36
2019-01-31T08:49:28.335Z,0.54
2019-01-31T08:51:58.582Z,0.48
2019-01-31T08:54:28.879Z,0.71
2019-01-31T08:57:01.459Z,1.04
2019-01-31T08:59:34.752Z,1.20
2019-01-31T09:02:05.193Z,1.23
2019-01-31T09:04:35.966Z,1.15
2019-01-31T09:07:06.315Z,1.35
2019-01-31T09:09:36.792Z,1.18
2019-01-31T09:12:14.948Z,0.95
2019-01-31T09:14:39.643Z,1.06
2019-01-31T09:17:10.100Z,1.09
2019-01-31T09:19:40.339Z,1.14
2019-01-31T09:22:34.689Z,1.33
2019-01-31T09:25:32.061Z,1.32
2019-01-31T09:28:46.233Z,1.55
2019-01-31T09:32:05.101Z,1.60
2019-01-31T09:35:22.092Z,1.12
2019-01-31T09:38:35.517Z,1.26
2019-01-31T09:41:29.927Z,1.29
2019-01-31T09:44:35.712Z,1.27
2019-01-31T09:48:07.877Z,1.40
2019-01-31T09:51:26.434Z,1.34
2019-01-31T09:54:31.390Z,1.69
2019-01-31T09:57:26.287Z,1.67
2019-01-31T10:00:47.564Z,2.99
2019-01-31T10:04:02.731Z,4.78
2019-01-31T10:07:06.102Z,6.17
2019-01-31T10:10:05.737Z,7.46
2019-01-31T10:13:13.364Z,8.64
2019-01-31T10:16:24.739Z,7.39
2019-01-31T10:19:16.967Z,7.11
2019-01-31T10:22:34.283Z,4.32
2019-01-31T10:25:46.990Z,5.61
2019-01-31T10:28:54.101Z,5.82
2019-01-31T10:31:51.043Z,7.72
2019-01-31T10:34:34.048Z,7.53
2019-01-31T10:37:30.415Z,5.94
2019-01-31T10:40:16.132Z,5.02
2019-01-31T10:43:24.745Z,4.76
2019-01-31T10:46:08.260Z,5.39
2019-01-31T10:49:00.503Z,5.21
2019-01-31T10:52:10.532Z,4.68
2019-01-31T10:55:22.880Z,6.81
2019-01-31T10:58:36.303Z,7.05
2019-01-31T11:02:03.234Z,7.36
2019-01-31T11:05:04.058Z,7.80
2019-01-31T11:08:12.834Z,7.48
2019-01-31T11:11:15.491Z,7.41
2019-01-31T11:14:29.942Z,6.40
2019-01-31T11:17:54.303Z,7.71
2019-01-31T11:21:12.742Z,7.95
2019-01-31T11:24:22.105Z,7.48
2019-01-31T11:27:44.203Z,7.79
2019-01-31T11:30:39.671Z,5.32
2019-01-31T11:34:00.243Z,7.36
2019-01-31T11:36:49.493Z,5.45
2019-01-31T11:39:56.615Z,5.63
2019-01-31T11:42:55.843Z,5.62
2019-01-31T11:46:10.924Z,8.08
2019-01-31T11:49:21.555Z,8.12
2019-01-31T11:52:51.004Z,6.83
2019-01-31T11:55:27.584Z,6.08
2019-01-31T11:58:24.255Z,8.50
2019-01-31T12:00:54.501Z,8.48
2019-01-31T12:03:25.168Z,8.61
2019-01-31T12:05:56.948Z,9.17
2019-01-31T12:08:28.449Z,7.81
2019-01-31T12:10:58.722Z,6.34
2019-01-31T12:13:29.502Z,5.96
2019-01-31T12:16:00.151Z,6.04
2019-01-31T12:18:31.618Z,5.63
2019-01-31T12:21:01.868Z,5.55
2019-01-31T12:23:32.524Z,6.82
2019-01-31T12:26:06.190Z,8.39
2019-01-31T12:28:36.613Z,7.68
2019-01-31T12:31:06.982Z,7.18
2019-01-31T12:33:37.308Z,6.48
2019-01-31T12:36:08.729Z,7.88
2019-01-31T12:38:41.337Z,7.14
2019-01-31T12:41:11.809Z,7.09
2019-01-31T12:43:44.253Z,6.40
2019-01-31T12:46:14.820Z,6.26
2019-01-31T12:48:45.213Z,6.52
2019-01-31T12:51:15.487Z,8.81
2019-01-31T12:53:45.866Z,8.04
2019-01-31T12:56:16.087Z,7.70
2019-01-31T12:58:46.352Z,6.05
2019-01-31T13:01:16.522Z,6.18
2019-01-31T13:03:47.574Z,5.65
2019-01-31T13:06:18.273Z,6.05
2019-01-31T13:08:48.823Z,6.15
2019-01-31T13:11:19.500Z,6.17
2019-01-31T13:13:50.451Z,6.44
2019-01-31T13:16:20.933Z,6.59
2019-01-31T13:18:51.301Z,6.80
2019-01-31T13:21:21.541Z,6.04
2019-01-31T13:23:53.276Z,6.24
2019-01-31T13:26:23.730Z,7.30
2019-01-31T13:28:54.235Z,6.49
2019-01-31T13:31:24.571Z,6.24
2019-01-31T13:33:55.114Z,5.68
2019-01-31T13:36:25.693Z,5.57
2019-01-31T13:38:56.135Z,5.22
2019-01-31T13:41:26.450Z,5.21
2019-01-31T13:43:57.881Z,5.28
2019-01-31T13:46:28.302Z,5.26
2019-01-31T13:48:59.098Z,5.26
2019-01-31T13:51:29.653Z,5.07
2019-01-31T13:54:00.022Z,5.11
2019-01-31T13:56:30.245Z,5.96
2019-01-31T13:59:00.591Z,5.69
2019-01-31T14:01:30.902Z,6.23
2019-01-31T14:04:01.293Z,6.19
2019-01-31T14:06:31.496Z,5.14
2019-01-31T14:09:02.003Z,4.73
2019-01-31T14:11:32.335Z,4.29
2019-01-31T14:14:09.206Z,4.36
2019-01-31T14:16:35.023Z,4.20
2019-01-31T14:19:05.245Z,4.27
2019-01-31T14:21:35.428Z,4.69
2019-01-31T14:24:06.305Z,4.79
2019-01-31T14:26:36.542Z,4.42
2019-01-31T14:29:07.379Z,4.12
2019-01-31T14:31:39.452Z,4.06
2019-01-31T14:34:09.736Z,4.07
2019-01-31T14:36:40.012Z,3.97
2019-01-31T14:39:11.218Z,3.87
2019-01-31T14:41:42.837Z,4.02
2019-01-31T14:44:20.610Z,3.94
2019-01-31T14:46:45.862Z,3.74
2019-01-31T14:49:16.645Z,3.61
2019-01-31T14:51:46.979Z,3.46
2019-01-31T14:54:17.452Z,3.78
2019-01-31T14:56:47.653Z,3.58
2019-01-31T14:59:18.221Z,3.69
2019-01-31T15:01:51.247Z,3.55
2019-01-31T15:04:21.837Z,3.41
2019-01-31T15:06:52.244Z,3.36
2019-01-31T15:09:22.864Z,3.36
2019-01-31T15:11:53.425Z,3.30
2019-01-31T15:14:31.592Z,3.28
2019-01-31T15:16:56.184Z,3.31
2019-01-31T15:19:26.459Z,3.21
2019-01-31T15:21:56.881Z,3.00
2019-01-31T15:24:28.709Z,2.92
2019-01-31T15:26:59.031Z,3.07
2019-01-31T15:29:30.442Z,2.76
2019-01-31T15:32:03.217Z,2.79
2019-01-31T15:34:33.501Z,2.79
2019-01-31T15:37:03.820Z,2.74
2019-01-31T15:39:34.225Z,2.82
2019-01-31T15:42:04.450Z,2.75
2019-01-31T15:44:43.077Z,2.62
2019-01-31T15:47:06.724Z,2.52
2019-01-31T15:49:37.623Z,2.65
2019-01-31T15:52:08.293Z,2.60
2019-01-31T15:54:39.488Z,2.58
2019-01-31T15:57:16.318Z,2.49
2019-01-31T15:59:42.054Z,2.44
2019-01-31T16:02:14.700Z,2.14
2019-01-31T16:04:45.058Z,1.96
2019-01-31T16:07:15.371Z,1.99
2019-01-31T16:09:45.618Z,2.08
2019-01-31T16:12:16.296Z,1.95
2019-01-31T16:14:54.513Z,1.86
2019-01-31T16:17:18.957Z,1.89
2019-01-31T16:19:49.156Z,1.84
2019-01-31T16:22:20.981Z,1.61
2019-01-31T16:24:51.331Z,1.62
2019-01-31T16:27:21.535Z,1.46
2019-01-31T16:29:52.044Z,1.60
2019-01-31T16:32:23.419Z,1.52
2019-01-31T16:34:53.681Z,1.43
2019-01-31T16:37:25.387Z,1.28
2019-01-31T16:39:55.776Z,1.27
2019-01-31T16:42:26.061Z,1.24
2019-01-31T16:45:06.331Z,1.18
2019-01-31T16:47:28.531Z,1.16
2019-01-31T16:49:58.776Z,1.18
2019-01-31T16:52:29.007Z,1.13
2019-01-31T16:55:00.692Z,0.99
2019-01-31T16:57:33.208Z,1.03
2019-01-31T17:00:04.661Z,1.03
2019-01-31T17:02:35.157Z,1.07
2019-01-31T17:05:06.328Z,1.12
2019-01-31T17:07:37.804Z,1.14
2019-01-31T17:10:08.433Z,1.02
2019-01-31T17:12:38.661Z,0.93
2019-01-31T17:15:17.683Z,0.90
2019-01-31T17:17:42.042Z,0.84
2019-01-31T17:20:19.190Z,0.81
2019-01-31T17:22:50.533Z,0.75
2019-01-31T17:25:21.310Z,0.76
2019-01-31T17:27:51.693Z,0.65
2019-01-31T17:30:24.625Z,0.71
2019-01-31T17:32:55.068Z,0.77
2019-01-31T17:35:25.711Z,0.77
2019-01-31T17:37:56.023Z,0.80
2019-01-31T17:40:29.964Z,0.74
2019-01-31T17:43:00.182Z,0.68
2019-01-31T17:45:31.073Z,0.76
2019-01-31T17:48:01.786Z,0.76
2019-01-31T17:50:32.011Z,0.75
2019-01-31T17:53:02.255Z,0.76
2019-01-31T17:55:32.721Z,0.76
2019-01-31T17:58:02.944Z,0.69
2019-01-31T18:00:53.924Z,0.74
2019-01-31T18:03:25.289Z,0.81
2019-01-31T18:05:55.628Z,0.85
2019-01-31T18:08:27.121Z,0.88
2019-01-31T18:10:57.649Z,0.82
2019-01-31T18:13:27.992Z,0.90
2019-01-31T18:15:58.432Z,0.89
2019-01-31T18:18:29.215Z,1.00
2019-01-31T18:20:59.678Z,0.93
2019-01-31T18:23:29.915Z,0.88
2019-01-31T18:26:00.337Z,0.87
2019-01-31T18:28:30.575Z,0.71
2019-01-31T18:31:00.916Z,0.87
2019-01-31T18:33:31.201Z,0.78
2019-01-31T18:36:01.562Z,0.71
2019-01-31T18:38:31.736Z,0.66
2019-01-31T18:41:02.258Z,0.53
2019-01-31T18:43:32.733Z,0.63
2019-01-31T18:46:03.095Z,0.53
2019-01-31T18:48:33.394Z,0.45
2019-01-31T18:51:03.805Z,0.40
2019-01-31T18:53:34.170Z,0.37
2019-01-31T18:56:05.017Z,0.33
2019-01-31T18:58:35.595Z,0.26
2019-01-31T19:01:06.383Z,0.24
2019-01-31T19:03:36.775Z,0.24
2019-01-31T19:06:07.196Z,0.24
2019-01-31T19:08:37.666Z,0.16
2019-01-31T19:11:07.876Z,0.24
2019-01-31T19:13:38.293Z,0.17
2019-01-31T19:16:09.129Z,0.12
2019-01-31T19:18:39.670Z,0.16
2019-01-31T19:21:11.284Z,0.12
2019-01-31T19:23:41.944Z,0.09
2019-01-31T19:26:12.272Z,0.04
2019-01-31T19:28:42.536Z,0.05
2019-01-31T19:31:13.055Z,0.05
2019-01-31T19:33:44.538Z,0.05
2019-01-31T19:36:14.865Z,-0.02
2019-01-31T19:38:45.080Z,-0.05
2019-01-31T19:41:15.280Z,0.00
2019-01-31T19:43:45.504Z,0.01
2019-01-31T19:46:17.391Z,-0.04
2019-01-31T19:48:48.027Z,-0.07
2019-01-31T19:51:19.151Z,-0.07
2019-01-31T19:53:49.467Z,-0.20
2019-01-31T19:56:19.787Z,-0.22
2019-01-31T19:58:50.224Z,-0.14
2019-01-31T20:01:20.454Z,-0.04
2019-01-31T20:03:50.695Z,-0.16
2019-01-31T20:06:21.460Z,-0.21
2019-01-31T20:08:53.727Z,-0.16
2019-01-31T20:11:25.198Z,-0.21
2019-01-31T20:13:55.416Z,-0.20
2019-01-31T20:16:29.064Z,-0.22
2019-01-31T20:18:57.711Z,-0.15
2019-01-31T20:21:28.209Z,-0.18
2019-01-31T20:23:58.882Z,-0.22
2019-01-31T20:26:29.164Z,-0.29
2019-01-31T20:28:59.464Z,-0.31
2019-01-31T20:31:30.142Z,-0.39
2019-01-31T20:34:00.397Z,-0.42
2019-01-31T20:36:30.579Z,-0.32
2019-01-31T20:39:00.904Z,-0.37
2019-01-31T20:41:32.116Z,-0.38
2019-01-31T20:44:02.423Z,-0.31
2019-01-31T20:46:40.040Z,-0.39
2019-01-31T20:49:06.004Z,-0.40
2019-01-31T20:51:36.257Z,-0.51
2019-01-31T20:54:06.758Z,-0.53
2019-01-31T20:56:37.264Z,-0.53
2019-01-31T20:59:07.456Z,-0.64
2019-01-31T21:01:37.853Z,-0.60
2019-01-31T21:04:08.156Z,-0.59
2019-01-31T21:06:41.542Z,-0.60
2019-01-31T21:09:11.905Z,-0.60
2019-01-31T21:11:42.483Z,-0.61
2019-01-31T21:14:12.731Z,-0.67
2019-01-31T21:16:51.224Z,-0.59
2019-01-31T21:19:15.376Z,-0.63
2019-01-31T21:21:45.676Z,-0.63
2019-01-31T21:24:16.128Z,-0.66
2019-01-31T21:26:46.469Z,-0.59
2019-01-31T21:29:16.705Z,-0.72
2019-01-31T21:31:48.338Z,-0.67
2019-01-31T21:34:18.549Z,-0.72
2019-01-31T21:36:48.878Z,-0.70
2019-01-31T21:39:19.139Z,-0.77
2019-01-31T21:41:49.356Z,-0.72
2019-01-31T21:44:19.641Z,-0.82
2019-01-31T21:46:49.991Z,-0.76
2019-01-31T21:49:21.475Z,-0.76
2019-01-31T21:51:51.766Z,-0.79
2019-01-31T21:54:23.657Z,-0.81
2019-01-31T21:56:53.929Z,-0.76
2019-01-31T21:59:24.162Z,-0.66
2019-01-31T22:01:54.357Z,-0.79
2019-01-31T22:04:24.574Z,-0.88
2019-01-31T22:06:54.800Z,-0.88
2019-01-31T22:09:25.055Z,-0.88
2019-01-31T22:11:55.241Z,-0.83
2019-01-31T22:14:25.464Z,-0.85
2019-01-31T22:16:55.687Z,-0.90
2019-01-31T22:19:26.148Z,-0.87
2019-01-31T22:21:56.388Z,-0.84
2019-01-31T22:24:26.587Z,-0.79
2019-01-31T22:26:56.813Z,-0.80
2019-01-31T22:29:27.004Z,-0.74
2019-01-31T22:31:57.223Z,-0.78
2019-01-31T22:34:27.695Z,-0.72
2019-01-31T22:36:57.937Z,-0.76
2019-01-31T22:39:28.119Z,-0.73
2019-01-31T22:41:58.379Z,-0.74
2019-01-31T22:44:28.559Z,-0.55
2019-01-31T22:46:58.770Z,-0.62
2019-01-31T22:49:29.075Z,-0.61
2019-01-31T22:51:59.335Z,-0.55
2019-01-31T22:54:29.554Z,-0.55
2019-01-31T22:56:59.758Z,-0.62
2019-01-31T22:59:29.969Z,-0.68
2019-01-31T23:02:05.909Z,-0.58
2019-01-31T23:04:36.169Z,-0.63
2019-01-31T23:07:06.473Z,-0.56
2019-01-31T23:09:36.663Z,-0.64
2019-01-31T23:12:07.041Z,-0.59
2019-01-31T23:14:37.272Z,-0.65
2019-01-31T23:17:07.536Z,-0.60
2019-01-31T23:19:37.987Z,-0.58
2019-01-31T23:22:08.145Z,-0.55
2019-01-31T23:24:38.339Z,-0.65
2019-01-31T23:27:08.640Z,-0.68
2019-01-31T23:29:38.870Z,-0.59
2019-01-31T23:32:09.180Z,-0.52
2019-01-31T23:34:39.368Z,-0.64
2019-01-31T23:37:09.636Z,-0.66
2019-01-31T23:39:39.841Z,-0.68
2019-01-31T23:42:10.050Z,-0.72
2019-01-31T23:44:40.247Z,-0.72
2019-01-31T23:47:10.658Z,-0.75
2019-01-31T23:49:40.932Z,-0.74
2019-01-31T23:52:11.643Z,-0.77
2019-01-31T23:54:41.928Z,-0.77
2019-01-31T23:57:12.094Z,-0.79
2019-01-31T23:59:42.254Z,-0.78
